createdAt,value
2023-01-21T00:00:26.560Z,31
2023-01-21T00:01:26.557Z,33
2023-01-21T00:02:26.594Z,33
2023-01-21T00:04:26.573Z,31
2023-01-21T00:05:26.570Z,34
2023-01-21T00:06:26.560Z,34
2023-01-21T00:07:26.577Z,32
2023-01-21T00:09:26.569Z,34
2023-01-21T00:10:26.559Z,34
2023-01-21T00:11:26.558Z,33
2023-01-21T00:12:26.559Z,31
2023-01-21T00:13:26.559Z,32
2023-01-21T00:14:26.564Z,35
2023-01-21T00:15:26.598Z,35
2023-01-21T00:16:26.559Z,33
2023-01-21T00:17:26.566Z,33
2023-01-21T00:18:28.257Z,31
2023-01-21T00:19:26.560Z,30
2023-01-21T00:20:26.580Z,34
2023-01-21T00:21:26.567Z,33
2023-01-21T00:22:26.560Z,33
2023-01-21T00:23:26.571Z,35
2023-01-21T00:24:26.553Z,31
2023-01-21T00:25:26.572Z,32
2023-01-21T00:26:26.571Z,29
2023-01-21T00:27:26.559Z,29
2023-01-21T00:28:26.563Z,35
2023-01-21T00:29:26.557Z,33
2023-01-21T00:30:26.563Z,32
2023-01-21T00:31:26.597Z,33
2023-01-21T00:32:26.559Z,32
2023-01-21T00:33:26.578Z,34
2023-01-21T00:34:26.650Z,35
2023-01-21T00:35:26.647Z,31
2023-01-21T00:36:26.643Z,33
2023-01-21T00:37:26.650Z,35
2023-01-21T00:38:26.512Z,34
2023-01-21T00:39:26.499Z,30
2023-01-21T00:40:26.521Z,33
2023-01-21T00:41:26.517Z,34
2023-01-21T00:42:26.522Z,34
2023-01-21T00:43:26.507Z,32
2023-01-21T00:44:26.522Z,30
2023-01-21T00:45:26.579Z,34
2023-01-21T00:46:26.624Z,36
2023-01-21T00:47:26.538Z,33
2023-01-21T00:48:26.522Z,31
2023-01-21T00:49:26.511Z,35
2023-01-21T00:50:26.549Z,34
2023-01-21T00:51:26.609Z,33
2023-01-21T00:52:26.607Z,36
2023-01-21T00:53:26.534Z,36
2023-01-21T00:54:26.522Z,34
2023-01-21T00:55:26.524Z,34
2023-01-21T00:56:26.517Z,35
2023-01-21T00:57:26.551Z,33
2023-01-21T00:58:26.510Z,36
2023-01-21T00:59:26.515Z,33
2023-01-21T01:00:26.538Z,35
2023-01-21T01:01:26.551Z,31
2023-01-21T01:02:26.574Z,36
2023-01-21T01:03:26.520Z,33
2023-01-21T01:04:26.532Z,35
2023-01-21T01:05:26.514Z,34
2023-01-21T01:06:26.527Z,36
2023-01-21T01:07:26.566Z,33
2023-01-21T01:08:26.519Z,31
2023-01-21T01:09:26.514Z,33
2023-01-21T01:10:26.515Z,33
2023-01-21T01:11:26.546Z,32
2023-01-21T01:12:26.530Z,32
2023-01-21T01:13:26.521Z,29
2023-01-21T01:14:26.520Z,32
2023-01-21T01:15:26.516Z,34
2023-01-21T01:16:26.520Z,34
2023-01-21T01:17:26.512Z,34
2023-01-21T01:18:26.522Z,36
2023-01-21T01:19:26.519Z,33
2023-01-21T01:20:26.517Z,31
2023-01-21T01:21:26.515Z,32
2023-01-21T01:22:26.553Z,35
2023-01-21T01:23:26.522Z,31
2023-01-21T01:24:26.570Z,34
2023-01-21T01:25:26.564Z,36
2023-01-21T01:26:26.610Z,32
2023-01-21T01:27:26.560Z,33
2023-01-21T01:28:26.578Z,35
2023-01-21T01:29:26.568Z,30
2023-01-21T01:30:26.636Z,33
2023-01-21T01:31:26.589Z,31
2023-01-21T01:32:26.566Z,32
2023-01-21T01:33:26.566Z,39
2023-01-21T01:34:26.769Z,38
2023-01-21T01:35:26.563Z,31
2023-01-21T01:36:26.566Z,38
2023-01-21T01:37:26.567Z,35
2023-01-21T01:38:26.563Z,35
2023-01-21T01:40:26.654Z,32
2023-01-21T01:41:26.654Z,34
2023-01-21T01:42:26.644Z,35
2023-01-21T01:43:26.645Z,37
2023-01-21T01:44:26.668Z,33
2023-01-21T01:45:26.656Z,38
2023-01-21T01:46:26.743Z,35
2023-01-21T01:47:26.647Z,34
2023-01-21T01:48:26.671Z,34
2023-01-21T01:49:26.649Z,36
2023-01-21T01:50:26.661Z,35
2023-01-21T01:51:26.658Z,35
2023-01-21T01:52:26.648Z,38
2023-01-21T01:53:26.669Z,31
2023-01-21T01:54:26.654Z,37
2023-01-21T01:55:26.672Z,33
2023-01-21T01:56:26.837Z,33
2023-01-21T01:58:26.515Z,31
2023-01-21T01:59:26.528Z,36
2023-01-21T02:00:26.533Z,32
2023-01-21T02:01:26.548Z,37
2023-01-21T02:02:26.518Z,33
2023-01-21T02:03:26.517Z,33
2023-01-21T02:04:26.523Z,34
2023-01-21T02:05:26.520Z,35
2023-01-21T02:06:26.523Z,33
2023-01-21T02:07:26.536Z,31
2023-01-21T02:08:26.551Z,33
2023-01-21T02:09:26.511Z,32
2023-01-21T02:10:26.523Z,32
2023-01-21T02:11:26.526Z,40
2023-01-21T02:12:26.521Z,32
2023-01-21T02:13:26.521Z,32
2023-01-21T02:14:26.530Z,31
2023-01-21T02:15:26.524Z,36
2023-01-21T02:16:26.555Z,36
2023-01-21T02:17:26.513Z,35
2023-01-21T02:18:26.518Z,34
2023-01-21T02:19:26.513Z,40
2023-01-21T02:20:26.544Z,35
2023-01-21T02:21:26.521Z,33
2023-01-21T02:22:26.519Z,37
2023-01-21T02:23:26.515Z,31
2023-01-21T02:24:26.515Z,36
2023-01-21T02:25:26.520Z,40
2023-01-21T02:26:26.556Z,40
2023-01-21T02:27:30.789Z,37
2023-01-21T02:28:26.520Z,32
2023-01-21T02:29:26.524Z,35
2023-01-21T02:30:26.529Z,37
2023-01-21T02:31:26.630Z,34
2023-01-21T02:32:26.523Z,41
2023-01-21T02:33:26.521Z,37
2023-01-21T02:34:26.514Z,37
2023-01-21T02:35:26.516Z,35
2023-01-21T02:36:26.519Z,36
2023-01-21T02:37:26.520Z,35
2023-01-21T02:38:26.523Z,35
2023-01-21T02:39:26.542Z,32
2023-01-21T02:40:26.524Z,36
2023-01-21T02:41:26.515Z,38
2023-01-21T02:42:26.516Z,39
2023-01-21T02:43:26.524Z,35
2023-01-21T02:44:26.568Z,35
2023-01-21T02:45:26.581Z,32
2023-01-21T02:46:26.614Z,35
2023-01-21T02:47:26.838Z,34
2023-01-21T02:48:26.570Z,31
2023-01-21T02:49:26.575Z,36
2023-01-21T02:50:26.580Z,39
2023-01-21T02:51:26.571Z,35
2023-01-21T02:52:26.565Z,34
2023-01-21T02:53:26.648Z,35
2023-01-21T02:54:26.573Z,35
2023-01-21T02:55:26.573Z,31
2023-01-21T02:56:26.585Z,31
2023-01-21T02:57:26.578Z,35
2023-01-21T02:58:26.599Z,32
2023-01-21T02:59:26.570Z,31
2023-01-21T03:01:26.663Z,34
2023-01-21T03:02:26.651Z,33
2023-01-21T03:03:26.668Z,32
2023-01-21T03:04:26.653Z,34
2023-01-21T03:05:26.775Z,31
2023-01-21T03:06:26.665Z,33
2023-01-21T03:07:26.664Z,36
2023-01-21T03:08:26.655Z,35
2023-01-21T03:09:26.648Z,34
2023-01-21T03:11:26.673Z,32
2023-01-21T03:12:26.651Z,35
2023-01-21T03:13:26.649Z,38
2023-01-21T03:14:26.664Z,38
2023-01-21T03:15:26.672Z,31
2023-01-21T03:16:26.940Z,31
2023-01-21T03:22:37.486Z,34
2023-01-21T03:25:05.742Z,31
2023-01-21T03:28:48.086Z,36
2023-01-21T03:30:39.286Z,34
2023-01-21T03:35:35.774Z,34
2023-01-21T03:37:26.636Z,33
2023-01-21T03:38:37.869Z,32
2023-01-21T03:39:26.526Z,39
2023-01-21T03:40:26.549Z,33
2023-01-21T03:42:26.523Z,35
2023-01-21T03:43:26.530Z,37
2023-01-21T03:44:26.525Z,31
2023-01-21T03:45:26.566Z,37
2023-01-21T03:46:26.525Z,31
2023-01-21T03:48:26.529Z,33
2023-01-21T03:49:26.530Z,32
2023-01-21T03:50:26.523Z,35
2023-01-21T03:51:26.537Z,33
2023-01-21T03:52:26.538Z,31
2023-01-21T03:53:26.529Z,33
2023-01-21T03:54:26.521Z,39
2023-01-21T03:55:26.524Z,30
2023-01-21T03:56:26.520Z,33
2023-01-21T03:57:26.520Z,34
2023-01-21T03:58:26.580Z,36
2023-01-21T03:59:26.515Z,34
2023-01-21T04:00:26.675Z,32
2023-01-21T04:01:26.526Z,38
2023-01-21T04:02:26.575Z,33
2023-01-21T04:03:26.520Z,32
2023-01-21T04:04:26.522Z,30
2023-01-21T04:05:26.521Z,35
2023-01-21T04:06:26.522Z,33
2023-01-21T04:07:26.543Z,32
2023-01-21T04:08:26.563Z,30
2023-01-21T04:09:26.516Z,32
2023-01-21T04:10:26.518Z,30
2023-01-21T04:11:26.544Z,36
2023-01-21T04:12:26.524Z,33
2023-01-21T04:13:26.526Z,31
2023-01-21T04:14:26.532Z,32
2023-01-21T04:15:26.517Z,34
2023-01-21T04:16:26.535Z,32
2023-01-21T04:17:26.515Z,32
2023-01-21T04:18:26.533Z,36
2023-01-21T04:19:26.526Z,32
2023-01-21T04:20:26.586Z,33
2023-01-21T04:21:26.564Z,35
2023-01-21T04:22:26.570Z,35
2023-01-21T04:23:26.571Z,35
2023-01-21T04:24:26.577Z,34
2023-01-21T04:25:26.570Z,32
2023-01-21T04:26:26.575Z,31
2023-01-21T04:27:26.626Z,30
2023-01-21T04:28:26.575Z,34
2023-01-21T04:29:26.573Z,29
2023-01-21T04:30:26.569Z,31
2023-01-21T04:31:26.638Z,33
2023-01-21T04:32:26.572Z,35
2023-01-21T04:33:26.577Z,33
2023-01-21T04:34:26.584Z,35
2023-01-21T04:35:26.574Z,30
2023-01-21T04:36:26.676Z,35
2023-01-21T04:37:26.655Z,32
2023-01-21T04:38:26.657Z,30
2023-01-21T04:39:26.723Z,35
2023-01-21T04:40:26.666Z,38
2023-01-21T04:41:26.655Z,30
2023-01-21T04:42:26.666Z,30
2023-01-21T04:43:26.660Z,30
2023-01-21T04:44:26.671Z,34
2023-01-21T04:45:26.656Z,38
2023-01-21T04:46:26.699Z,34
2023-01-21T04:47:26.654Z,33
2023-01-21T04:48:26.655Z,35
2023-01-21T04:49:26.653Z,34
2023-01-21T04:50:26.657Z,34
2023-01-21T04:51:26.688Z,30
2023-01-21T04:52:39.171Z,37
2023-01-21T04:57:35.678Z,34
2023-01-21T05:00:26.844Z,34
2023-01-21T05:06:37.471Z,42
2023-01-21T05:09:05.726Z,33
2023-01-21T05:12:48.461Z,30
2023-01-21T05:14:16.522Z,31
2023-01-21T05:14:37.985Z,32
2023-01-21T05:15:26.619Z,30
2023-01-21T05:16:26.606Z,35
2023-01-21T05:17:26.528Z,33
2023-01-21T05:18:26.528Z,29
2023-01-21T05:19:26.528Z,33
2023-01-21T05:20:26.525Z,28
2023-01-21T05:21:26.597Z,32
2023-01-21T05:22:26.549Z,31
2023-01-21T05:23:26.532Z,29
2023-01-21T05:24:26.531Z,33
2023-01-21T05:25:26.548Z,30
2023-01-21T05:26:26.534Z,34
2023-01-21T05:27:26.553Z,31
2023-01-21T05:28:26.538Z,34
2023-01-21T05:29:26.524Z,36
2023-01-21T05:30:26.526Z,37
2023-01-21T05:31:26.595Z,36
2023-01-21T05:32:26.525Z,37
2023-01-21T05:33:26.541Z,35
2023-01-21T05:34:26.524Z,33
2023-01-21T05:35:26.526Z,37
2023-01-21T05:36:26.527Z,36
2023-01-21T05:37:26.537Z,41
2023-01-21T05:38:26.527Z,38
2023-01-21T05:39:26.531Z,38
2023-01-21T05:40:26.524Z,33
2023-01-21T05:41:26.532Z,40
2023-01-21T05:42:26.525Z,37
2023-01-21T05:43:26.532Z,40
2023-01-21T05:44:26.525Z,35
2023-01-21T05:45:26.528Z,37
2023-01-21T05:46:26.691Z,31
2023-01-21T05:47:26.556Z,37
2023-01-21T05:48:26.527Z,35
2023-01-21T05:49:26.534Z,37
2023-01-21T05:50:26.539Z,37
2023-01-21T05:51:26.539Z,37
2023-01-21T05:52:26.528Z,32
2023-01-21T05:53:26.535Z,40
2023-01-21T05:54:26.535Z,37
2023-01-21T05:55:26.528Z,38
2023-01-21T05:56:26.540Z,35
2023-01-21T05:57:26.529Z,36
2023-01-21T05:58:26.558Z,38
2023-01-21T05:59:26.589Z,31
2023-01-21T06:00:26.580Z,41
2023-01-21T06:01:26.582Z,37
2023-01-21T06:02:26.628Z,35
2023-01-21T06:03:26.625Z,42
2023-01-21T06:04:26.581Z,41
2023-01-21T06:05:26.566Z,33
2023-01-21T06:06:26.581Z,34
2023-01-21T06:07:26.582Z,37
2023-01-21T06:08:26.580Z,38
2023-01-21T06:09:26.570Z,35
2023-01-21T06:10:26.574Z,35
2023-01-21T06:11:26.574Z,34
2023-01-21T06:12:26.578Z,36
2023-01-21T06:13:26.583Z,37
2023-01-21T06:14:26.574Z,36
2023-01-21T06:15:26.660Z,36
2023-01-21T06:16:26.659Z,36
2023-01-21T06:17:26.669Z,36
2023-01-21T06:18:26.695Z,30
2023-01-21T06:19:26.664Z,32
2023-01-21T06:20:26.660Z,38
2023-01-21T06:21:26.666Z,34
2023-01-21T06:22:26.662Z,37
2023-01-21T06:23:26.657Z,38
2023-01-21T06:24:26.659Z,36
2023-01-21T06:25:26.669Z,35
2023-01-21T06:26:27.278Z,37
2023-01-21T06:27:26.657Z,33
2023-01-21T06:28:26.667Z,35
2023-01-21T06:29:26.672Z,36
2023-01-21T06:30:26.663Z,37
2023-01-21T06:31:27.006Z,39
2023-01-21T06:37:37.488Z,35
2023-01-21T06:40:05.716Z,34
2023-01-21T06:43:48.093Z,38
2023-01-21T06:45:39.287Z,38
2023-01-21T06:50:35.793Z,41
2023-01-21T06:52:26.709Z,41
2023-01-21T06:52:48.286Z,46
2023-01-21T06:55:26.590Z,44
2023-01-21T06:56:26.588Z,41
2023-01-21T06:57:26.574Z,44
2023-01-21T06:58:26.580Z,43
2023-01-21T06:59:26.575Z,43
2023-01-21T07:00:26.573Z,37
2023-01-21T07:01:26.647Z,41
2023-01-21T07:02:26.665Z,44
2023-01-21T07:03:26.571Z,39
2023-01-21T07:04:26.590Z,40
2023-01-21T07:05:26.585Z,42
2023-01-21T07:06:26.558Z,40
2023-01-21T07:07:26.599Z,43
2023-01-21T07:08:26.603Z,45
2023-01-21T07:09:26.580Z,46
2023-01-21T07:10:26.591Z,42
2023-01-21T07:11:26.574Z,38
2023-01-21T07:12:26.587Z,42
2023-01-21T07:13:26.597Z,41
2023-01-21T07:14:26.581Z,38
2023-01-21T07:15:26.596Z,43
2023-01-21T07:16:26.678Z,43
2023-01-21T07:17:26.577Z,42
2023-01-21T07:18:26.598Z,42
2023-01-21T07:19:26.586Z,39
2023-01-21T07:20:26.627Z,45
2023-01-21T07:21:26.582Z,42
2023-01-21T07:22:26.576Z,41
2023-01-21T07:23:26.585Z,42
2023-01-21T07:24:26.590Z,40
2023-01-21T07:25:26.586Z,45
2023-01-21T07:26:26.584Z,39
2023-01-21T07:27:26.594Z,42
2023-01-21T07:28:26.574Z,41
2023-01-21T07:29:26.569Z,44
2023-01-21T07:30:26.588Z,47
2023-01-21T07:31:26.730Z,47
2023-01-21T07:32:26.584Z,44
2023-01-21T07:33:26.578Z,47
2023-01-21T07:34:26.670Z,44
2023-01-21T07:35:26.685Z,44
2023-01-21T07:36:26.674Z,44
2023-01-21T07:37:26.711Z,48
2023-01-21T07:38:26.661Z,47
2023-01-21T07:39:26.667Z,42
2023-01-21T07:40:26.674Z,44
2023-01-21T07:41:26.664Z,44
2023-01-21T07:42:26.697Z,47
2023-01-21T07:43:26.667Z,44
2023-01-21T07:45:26.655Z,51
2023-01-21T07:46:26.736Z,47
2023-01-21T07:47:26.676Z,48
2023-01-21T07:48:26.671Z,52
2023-01-21T07:49:26.668Z,49
2023-01-21T07:50:26.723Z,48
2023-01-21T07:52:26.574Z,45
2023-01-21T07:53:26.573Z,49
2023-01-21T07:54:26.585Z,42
2023-01-21T07:55:26.582Z,42
2023-01-21T07:56:26.579Z,45
2023-01-21T07:57:26.582Z,48
2023-01-21T07:58:26.581Z,49
2023-01-21T07:59:26.577Z,47
2023-01-21T08:00:26.591Z,49
2023-01-21T08:01:26.609Z,48
2023-01-21T08:02:26.675Z,49
2023-01-21T08:03:26.577Z,47
2023-01-21T08:04:26.584Z,50
2023-01-21T08:05:26.574Z,53
2023-01-21T08:06:26.577Z,46
2023-01-21T08:07:26.577Z,48
2023-01-21T08:08:26.583Z,48
2023-01-21T08:09:26.595Z,53
2023-01-21T08:10:26.591Z,50
2023-01-21T08:11:26.579Z,44
2023-01-21T08:12:27.400Z,48
2023-01-21T08:13:26.582Z,53
2023-01-21T08:14:26.579Z,47
2023-01-21T08:15:26.597Z,52
2023-01-21T08:16:26.697Z,46
2023-01-21T08:17:26.579Z,48
2023-01-21T08:18:26.571Z,49
2023-01-21T08:19:26.575Z,45
2023-01-21T08:20:26.577Z,48
2023-01-21T08:21:26.587Z,47
2023-01-21T08:22:26.579Z,47
2023-01-21T08:23:26.580Z,47
2023-01-21T08:24:26.580Z,49
2023-01-21T08:25:26.621Z,42
2023-01-21T08:26:26.588Z,46
2023-01-21T08:27:26.579Z,48
2023-01-21T08:28:26.572Z,47
2023-01-21T08:29:26.581Z,49
2023-01-21T08:30:26.589Z,47
2023-01-21T08:31:26.642Z,45
2023-01-21T08:32:26.605Z,49
2023-01-21T08:33:26.630Z,43
2023-01-21T08:34:26.579Z,42
2023-01-21T08:35:26.604Z,44
2023-01-21T08:36:26.610Z,46
2023-01-21T08:37:26.592Z,43
2023-01-21T08:38:26.583Z,47
2023-01-21T08:39:26.668Z,40
2023-01-21T08:40:26.671Z,46
2023-01-21T08:41:26.662Z,46
2023-01-21T08:42:26.666Z,46
2023-01-21T08:43:26.664Z,42
2023-01-21T08:44:26.660Z,42
2023-01-21T08:45:26.742Z,47
2023-01-21T08:46:26.670Z,43
2023-01-21T08:47:26.672Z,44
2023-01-21T08:48:26.663Z,40
2023-01-21T08:49:26.663Z,48
2023-01-21T08:50:26.665Z,43
2023-01-21T08:51:26.662Z,40
2023-01-21T08:52:26.667Z,45
2023-01-21T08:53:26.672Z,42
2023-01-21T08:54:26.669Z,37
2023-01-21T08:56:28.368Z,42
2023-01-21T08:58:26.550Z,40
2023-01-21T08:59:26.526Z,41
2023-01-21T09:00:26.531Z,40
2023-01-21T09:01:26.553Z,37
2023-01-21T09:02:26.633Z,40
2023-01-21T09:03:26.553Z,35
2023-01-21T09:04:26.534Z,40
2023-01-21T09:05:26.541Z,44
2023-01-21T09:06:26.546Z,39
2023-01-21T09:07:26.560Z,43
2023-01-21T09:08:26.544Z,39
2023-01-21T09:09:26.538Z,45
2023-01-21T09:10:26.535Z,40
2023-01-21T09:11:26.533Z,40
2023-01-21T09:12:26.535Z,40
2023-01-21T09:13:29.089Z,42
2023-01-21T09:14:26.532Z,43
2023-01-21T09:15:26.532Z,42
2023-01-21T09:16:26.578Z,44
2023-01-21T09:17:26.551Z,39
2023-01-21T09:18:26.534Z,38
2023-01-21T09:19:26.528Z,42
2023-01-21T09:20:26.538Z,45
2023-01-21T09:21:26.531Z,42
2023-01-21T09:22:26.543Z,40
2023-01-21T09:23:26.556Z,46
2023-01-21T09:24:26.562Z,42
2023-01-21T09:25:26.556Z,40
2023-01-21T09:26:26.533Z,42
2023-01-21T09:27:26.531Z,43
2023-01-21T09:28:26.543Z,40
2023-01-21T09:29:26.559Z,39
2023-01-21T09:30:26.587Z,42
2023-01-21T09:31:26.600Z,42
2023-01-21T09:32:26.537Z,45
2023-01-21T09:33:26.545Z,45
2023-01-21T09:34:26.563Z,42
2023-01-21T09:35:26.553Z,39
2023-01-21T09:36:26.534Z,43
2023-01-21T09:37:26.539Z,36
2023-01-21T09:38:26.532Z,47
2023-01-21T09:39:26.541Z,40
2023-01-21T09:40:26.541Z,39
2023-01-21T09:41:26.549Z,41
2023-01-21T09:42:26.550Z,37
2023-01-21T09:43:26.553Z,41
2023-01-21T09:44:26.537Z,43
2023-01-21T09:45:26.589Z,43
2023-01-21T09:46:26.585Z,43
2023-01-21T09:47:26.595Z,48
2023-01-21T09:48:26.582Z,44
2023-01-21T09:49:26.603Z,49
2023-01-21T09:50:26.583Z,42
2023-01-21T09:51:26.584Z,45
2023-01-21T09:52:26.581Z,43
2023-01-21T09:53:26.588Z,42
2023-01-21T09:54:26.615Z,42
2023-01-21T09:55:26.585Z,48
2023-01-21T09:56:26.596Z,47
2023-01-21T09:57:26.610Z,42
2023-01-21T09:58:26.585Z,47
2023-01-21T09:59:26.591Z,45
2023-01-21T10:00:26.593Z,48
2023-01-21T10:01:26.719Z,44
2023-01-21T10:02:26.678Z,44
2023-01-21T10:03:26.672Z,46
2023-01-21T10:04:26.718Z,47
2023-01-21T10:05:26.683Z,47
2023-01-21T10:06:26.681Z,45
2023-01-21T10:07:26.697Z,47
2023-01-21T10:08:26.685Z,42
2023-01-21T10:09:26.673Z,43
2023-01-21T10:10:26.737Z,44
2023-01-21T10:11:26.669Z,43
2023-01-21T10:12:26.674Z,48
2023-01-21T10:13:26.667Z,45
2023-01-21T10:14:26.685Z,39
2023-01-21T10:16:26.919Z,42
2023-01-21T10:20:26.600Z,78
2023-01-21T10:21:26.585Z,65
2023-01-21T10:23:26.593Z,54
2023-01-21T10:24:26.584Z,45
2023-01-21T10:25:26.591Z,54
2023-01-21T10:26:26.595Z,50
2023-01-21T10:27:26.591Z,57
2023-01-21T10:28:26.601Z,59
2023-01-21T10:29:26.623Z,49
2023-01-21T10:30:26.775Z,52
2023-01-21T10:31:26.706Z,44
2023-01-21T10:32:26.584Z,48
2023-01-21T10:33:26.633Z,45
2023-01-21T10:34:26.588Z,47
2023-01-21T10:35:26.611Z,57
2023-01-21T10:37:26.592Z,50
2023-01-21T10:38:26.583Z,56
2023-01-21T10:39:26.587Z,56
2023-01-21T10:40:26.585Z,61
2023-01-21T10:41:26.663Z,57
2023-01-21T10:42:26.645Z,60
2023-01-21T10:43:26.589Z,54
2023-01-21T10:44:26.588Z,56
2023-01-21T10:45:26.594Z,60
2023-01-21T10:46:26.695Z,52
2023-01-21T10:47:26.588Z,50
2023-01-21T10:48:28.872Z,58
2023-01-21T10:49:26.595Z,51
2023-01-21T10:50:26.581Z,51
2023-01-21T10:51:26.613Z,70
2023-01-21T10:52:26.585Z,65
2023-01-21T10:53:26.591Z,53
2023-01-21T10:54:26.602Z,48
2023-01-21T10:55:26.589Z,44
2023-01-21T10:56:26.593Z,47
2023-01-21T10:57:26.597Z,41
2023-01-21T10:58:26.593Z,47
2023-01-21T10:59:26.589Z,41
2023-01-21T11:00:26.582Z,42
2023-01-21T11:01:26.641Z,44
2023-01-21T11:02:26.586Z,42
2023-01-21T11:03:26.611Z,43
2023-01-21T11:04:26.601Z,42
2023-01-21T11:05:26.588Z,38
2023-01-21T11:06:26.619Z,40
2023-01-21T11:07:26.670Z,42
2023-01-21T11:08:27.435Z,42
2023-01-21T11:09:26.676Z,40
2023-01-21T11:10:26.713Z,36
2023-01-21T11:11:26.713Z,38
2023-01-21T11:12:26.667Z,41
2023-01-21T11:13:26.664Z,37
2023-01-21T11:14:26.668Z,40
2023-01-21T11:15:26.672Z,36
2023-01-21T11:16:26.677Z,36
2023-01-21T11:17:26.675Z,42
2023-01-21T11:18:26.695Z,37
2023-01-21T11:19:26.677Z,39
2023-01-21T11:20:26.676Z,37
2023-01-21T11:21:26.671Z,39
2023-01-21T11:22:26.665Z,39
2023-01-21T11:23:26.884Z,37
2023-01-21T11:26:39.518Z,40
2023-01-21T11:27:26.544Z,35
2023-01-21T11:28:26.548Z,39
2023-01-21T11:29:26.585Z,34
2023-01-21T11:30:44.567Z,35
2023-01-21T11:31:26.757Z,35
2023-01-21T11:32:26.539Z,36
2023-01-21T11:33:26.735Z,34
2023-01-21T11:34:26.542Z,38
2023-01-21T11:35:26.544Z,36
2023-01-21T11:36:26.542Z,33
2023-01-21T11:37:26.572Z,36
2023-01-21T11:38:26.544Z,37
2023-01-21T11:39:26.574Z,30
2023-01-21T11:40:26.537Z,34
2023-01-21T11:41:26.546Z,31
2023-01-21T11:42:26.543Z,32
2023-01-21T11:43:26.544Z,35
2023-01-21T11:44:26.554Z,37
2023-01-21T11:45:26.554Z,35
2023-01-21T11:46:26.556Z,33
2023-01-21T11:47:26.540Z,34
2023-01-21T11:48:26.538Z,33
2023-01-21T11:49:26.559Z,30
2023-01-21T11:50:26.561Z,33
2023-01-21T11:51:26.590Z,29
2023-01-21T11:52:26.547Z,30
2023-01-21T11:53:26.541Z,28
2023-01-21T11:54:26.539Z,28
2023-01-21T11:55:26.548Z,28
2023-01-21T11:56:26.549Z,30
2023-01-21T11:57:26.548Z,32
2023-01-21T11:58:26.559Z,30
2023-01-21T11:59:26.549Z,29
2023-01-21T12:00:26.550Z,29
2023-01-21T12:01:26.541Z,34
2023-01-21T12:02:27.143Z,27
2023-01-21T12:03:26.590Z,29
2023-01-21T12:04:26.546Z,25
2023-01-21T12:05:26.545Z,27
2023-01-21T12:06:26.558Z,26
2023-01-21T12:07:26.553Z,27
2023-01-21T12:08:26.566Z,27
2023-01-21T12:09:26.542Z,28
2023-01-21T12:10:26.561Z,28
2023-01-21T12:11:26.562Z,28
2023-01-21T12:12:26.586Z,26
2023-01-21T12:13:26.603Z,31
2023-01-21T12:14:26.608Z,28
2023-01-21T12:15:26.596Z,27
2023-01-21T12:16:26.591Z,30
2023-01-21T12:17:26.593Z,24
2023-01-21T12:18:26.628Z,23
2023-01-21T12:19:26.621Z,27
2023-01-21T12:20:26.592Z,21
2023-01-21T12:21:26.588Z,24
2023-01-21T12:22:26.609Z,24
2023-01-21T12:23:26.598Z,24
2023-01-21T12:24:26.623Z,27
2023-01-21T12:25:26.593Z,22
2023-01-21T12:26:26.616Z,27
2023-01-21T12:28:26.682Z,27
2023-01-21T12:29:26.667Z,25
2023-01-21T12:30:26.716Z,27
2023-01-21T12:31:26.787Z,27
2023-01-21T12:32:26.683Z,30
2023-01-21T12:33:26.706Z,33
2023-01-21T12:34:26.681Z,33
2023-01-21T12:35:26.682Z,38
2023-01-21T12:36:26.678Z,40
2023-01-21T12:37:26.686Z,30
2023-01-21T12:38:26.950Z,30
2023-01-21T12:40:26.705Z,35
2023-01-21T12:41:26.691Z,35
2023-01-21T12:42:26.688Z,34
2023-01-21T12:43:26.686Z,35
2023-01-21T12:44:26.880Z,34
2023-01-21T12:46:26.575Z,24
2023-01-21T12:47:26.543Z,25
2023-01-21T12:48:26.542Z,27
2023-01-21T12:49:26.539Z,28
2023-01-21T12:50:26.623Z,26
2023-01-21T12:51:26.587Z,28
2023-01-21T12:52:26.542Z,34
2023-01-21T12:53:26.539Z,26
2023-01-21T12:54:26.597Z,24
2023-01-21T12:55:26.573Z,23
2023-01-21T12:56:26.556Z,28
2023-01-21T12:57:26.559Z,27
2023-01-21T12:58:26.569Z,27
2023-01-21T12:59:26.546Z,26
2023-01-21T13:00:26.644Z,25
2023-01-21T13:01:26.540Z,26
2023-01-21T13:02:26.715Z,22
2023-01-21T13:03:26.540Z,24
2023-01-21T13:04:29.064Z,24
2023-01-21T13:05:26.543Z,23
2023-01-21T13:06:37.959Z,25
2023-01-21T13:07:26.583Z,23
2023-01-21T13:08:26.535Z,25
2023-01-21T13:09:26.557Z,26
2023-01-21T13:10:26.537Z,25
2023-01-21T13:11:26.555Z,24
2023-01-21T13:12:26.551Z,30
2023-01-21T13:13:26.548Z,24
2023-01-21T13:14:26.541Z,24
2023-01-21T13:15:26.552Z,24
2023-01-21T13:16:26.699Z,23
2023-01-21T13:17:26.620Z,23
2023-01-21T13:18:26.550Z,24
2023-01-21T13:19:26.558Z,22
2023-01-21T13:20:26.543Z,26
2023-01-21T13:21:28.404Z,27
2023-01-21T13:22:26.592Z,25
2023-01-21T13:23:26.562Z,25
2023-01-21T13:24:26.561Z,25
2023-01-21T13:25:26.583Z,23
2023-01-21T13:26:26.556Z,24
2023-01-21T13:27:26.557Z,26
2023-01-21T13:28:26.554Z,27
2023-01-21T13:29:26.608Z,25
2023-01-21T13:30:26.586Z,26
2023-01-21T13:31:26.760Z,25
2023-01-21T13:32:26.622Z,28
2023-01-21T13:33:26.614Z,29
2023-01-21T13:34:26.635Z,29
2023-01-21T13:35:26.607Z,25
2023-01-21T13:36:26.602Z,27
2023-01-21T13:37:26.601Z,28
2023-01-21T13:38:26.604Z,29
2023-01-21T13:39:26.606Z,27
2023-01-21T13:40:27.391Z,28
2023-01-21T13:41:26.641Z,28
2023-01-21T13:42:26.611Z,29
2023-01-21T13:43:26.609Z,26
2023-01-21T13:44:26.606Z,24
2023-01-21T13:45:26.684Z,27
2023-01-21T13:46:26.607Z,26
2023-01-21T13:47:26.613Z,26
2023-01-21T13:48:28.271Z,28
2023-01-21T13:49:26.692Z,28
2023-01-21T13:50:26.703Z,24
2023-01-21T13:51:26.757Z,29
2023-01-21T13:52:26.715Z,26
2023-01-21T13:53:26.750Z,30
2023-01-21T13:54:26.687Z,32
2023-01-21T13:55:26.699Z,29
2023-01-21T13:56:26.686Z,30
2023-01-21T13:57:26.791Z,28
2023-01-21T13:59:26.687Z,29
2023-01-21T14:00:26.752Z,27
2023-01-21T14:01:26.682Z,25
2023-01-21T14:02:26.828Z,30
2023-01-21T14:03:26.703Z,40
2023-01-21T14:10:37.504Z,32
2023-01-21T14:13:05.755Z,25
2023-01-21T14:16:48.147Z,28
2023-01-21T14:18:39.304Z,24
2023-01-21T14:23:35.812Z,22
2023-01-21T14:25:27.373Z,20
2023-01-21T14:29:15.859Z,23
2023-01-21T14:29:36.249Z,18
2023-01-21T14:30:39.650Z,21
2023-01-21T14:31:26.610Z,30
2023-01-21T14:32:26.563Z,23
2023-01-21T14:33:26.566Z,26
2023-01-21T14:34:26.565Z,23
2023-01-21T14:35:26.563Z,22
2023-01-21T14:36:26.571Z,19
2023-01-21T14:37:26.612Z,21
2023-01-21T14:38:26.557Z,26
2023-01-21T14:39:26.575Z,26
2023-01-21T14:40:26.587Z,22
2023-01-21T14:41:26.565Z,25
2023-01-21T14:42:26.590Z,23
2023-01-21T14:43:26.569Z,27
2023-01-21T14:44:26.575Z,23
2023-01-21T14:45:26.577Z,22
2023-01-21T14:46:26.569Z,24
2023-01-21T14:47:26.601Z,25
2023-01-21T14:48:26.577Z,22
2023-01-21T14:49:26.620Z,21
2023-01-21T14:50:26.566Z,24
2023-01-21T14:51:26.602Z,23
2023-01-21T14:52:26.563Z,27
2023-01-21T14:53:26.582Z,25
2023-01-21T14:54:26.601Z,24
2023-01-21T14:55:26.560Z,22
2023-01-21T14:56:26.568Z,24
2023-01-21T14:57:26.572Z,24
2023-01-21T14:58:26.566Z,25
2023-01-21T14:59:26.573Z,24
2023-01-21T15:00:26.568Z,21
2023-01-21T15:01:26.651Z,26
2023-01-21T15:02:26.653Z,28
2023-01-21T15:03:26.592Z,29
2023-01-21T15:04:26.578Z,25
2023-01-21T15:05:26.569Z,22
2023-01-21T15:06:26.617Z,24
2023-01-21T15:07:26.640Z,22
2023-01-21T15:08:26.566Z,23
2023-01-21T15:09:26.568Z,24
2023-01-21T15:10:26.578Z,25
2023-01-21T15:11:26.621Z,27
2023-01-21T15:12:26.628Z,28
2023-01-21T15:13:26.615Z,21
2023-01-21T15:14:26.614Z,25
2023-01-21T15:15:26.609Z,25
2023-01-21T15:16:26.641Z,21
2023-01-21T15:17:26.604Z,23
2023-01-21T15:18:26.619Z,22
2023-01-21T15:19:26.612Z,25
2023-01-21T15:20:26.610Z,24
2023-01-21T15:21:26.617Z,31
2023-01-21T15:22:26.604Z,24
2023-01-21T15:23:26.598Z,27
2023-01-21T15:24:26.661Z,25
2023-01-21T15:26:26.643Z,23
2023-01-21T15:27:26.715Z,22
2023-01-21T15:28:26.698Z,33
2023-01-21T15:29:26.788Z,28
2023-01-21T15:30:26.741Z,20
2023-01-21T15:31:26.848Z,20
2023-01-21T15:32:26.728Z,21
2023-01-21T15:33:26.700Z,20
2023-01-21T15:34:26.709Z,24
2023-01-21T15:35:26.722Z,24
2023-01-21T15:36:26.714Z,24
2023-01-21T15:37:26.706Z,26
2023-01-21T15:38:26.706Z,20
2023-01-21T15:39:26.718Z,21
2023-01-21T15:40:26.713Z,20
2023-01-21T15:41:26.725Z,19
2023-01-21T15:42:26.722Z,24
2023-01-21T15:43:26.945Z,21
2023-01-21T15:48:40.147Z,25